Terminal Aerodrome Forecast
Issued by NWS Mt. Holly, NJ

Home | Current Version | Previous Version | Text Only | Print | Product List | Glossary On
Versions: 1 2 3 4 5 6 7 8 9 10 11 12 13 14 15
016
FTUS41 KPHI 252321
TAFACY
TAF
KACY 252321Z 2600/2624 06012G20KT P6SM VCSH OVC070
     FM260300 06010KT P6SM OVC035
     FM260600 06010KT 6SM -DZ BR OVC015
     FM260900 06012G20KT 6SM -DZ BR OVC008
     FM261600 08012KT 6SM BR OVC010
     FM262200 08010KT 4SM BR OVC008=

USA.gov is the U.S. government's official web portal to all federal, state and local government web resources and services.